sensor_id;sensor_type;location;lat;lon;timestamp;P1;durP1;ratioP1;P2;durP2;ratioP2
15012;SDS011;7603;49.432;11.418;2022-08-30T00:00:15;6.75;;;6.15;;
15012;SDS011;7603;49.432;11.418;2022-08-30T00:03:02;8.13;;;6.10;;
15012;SDS011;7603;49.432;11.418;2022-08-30T00:05:31;11.85;;;6.38;;
15012;SDS011;7603;49.432;11.418;2022-08-30T00:07:57;6.88;;;6.28;;
15012;SDS011;7603;49.432;11.418;2022-08-30T00:10:23;7.43;;;6.70;;
15012;SDS011;7603;49.432;11.418;2022-08-30T00:12:50;7.60;;;6.53;;
15012;SDS011;7603;49.432;11.418;2022-08-30T00:15:16;14.18;;;7.00;;
15012;SDS011;7603;49.432;11.418;2022-08-30T00:17:43;6.55;;;5.90;;
15012;SDS011;7603;49.432;11.418;2022-08-30T00:20:11;7.32;;;6.63;;
15012;SDS011;7603;49.432;11.418;2022-08-30T00:22:39;7.55;;;6.88;;
15012;SDS011;7603;49.432;11.418;2022-08-30T00:25:08;9.82;;;6.22;;
15012;SDS011;7603;49.432;11.418;2022-08-30T00:27:34;7.75;;;7.15;;
15012;SDS011;7603;49.432;11.418;2022-08-30T00:30:00;7.60;;;6.80;;
15012;SDS011;7603;49.432;11.418;2022-08-30T00:32:25;9.73;;;6.30;;
15012;SDS011;7603;49.432;11.418;2022-08-30T00:34:52;8.82;;;6.47;;
15012;SDS011;7603;49.432;11.418;2022-08-30T00:37:18;8.23;;;7.07;;
15012;SDS011;7603;49.432;11.418;2022-08-30T00:39:44;7.35;;;6.75;;
15012;SDS011;7603;49.432;11.418;2022-08-30T00:42:11;7.53;;;6.82;;
15012;SDS011;7603;49.432;11.418;2022-08-30T00:44:38;7.25;;;6.65;;
15012;SDS011;7603;49.432;11.418;2022-08-30T00:47:04;8.77;;;6.82;;
15012;SDS011;7603;49.432;11.418;2022-08-30T00:49:30;8.45;;;6.72;;
15012;SDS011;7603;49.432;11.418;2022-08-30T00:51:58;8.15;;;7.32;;
15012;SDS011;7603;49.432;11.418;2022-08-30T00:54:25;8.00;;;7.18;;
15012;SDS011;7603;49.432;11.418;2022-08-30T00:56:53;6.85;;;6.20;;
15012;SDS011;7603;49.432;11.418;2022-08-30T00:59:19;7.78;;;7.07;;
15012;SDS011;7603;49.432;11.418;2022-08-30T01:01:47;7.93;;;7.30;;
15012;SDS011;7603;49.432;11.418;2022-08-30T01:04:12;8.05;;;7.32;;
15012;SDS011;7603;49.432;11.418;2022-08-30T01:06:39;7.00;;;6.40;;
15012;SDS011;7603;49.432;11.418;2022-08-30T01:09:05;6.68;;;6.07;;
15012;SDS011;7603;49.432;11.418;2022-08-30T01:11:32;8.05;;;7.35;;
15012;SDS011;7603;49.432;11.418;2022-08-30T01:14:01;8.52;;;7.47;;
15012;SDS011;7603;49.432;11.418;2022-08-30T01:16:28;7.70;;;7.00;;
15012;SDS011;7603;49.432;11.418;2022-08-30T01:18:57;9.43;;;7.90;;
15012;SDS011;7603;49.432;11.418;2022-08-30T01:21:41;8.73;;;7.80;;
15012;SDS011;7603;49.432;11.418;2022-08-30T01:24:14;9.48;;;7.20;;
15012;SDS011;7603;49.432;11.418;2022-08-30T01:26:41;8.38;;;7.65;;
15012;SDS011;7603;49.432;11.418;2022-08-30T01:29:09;15.05;;;7.80;;
15012;SDS011;7603;49.432;11.418;2022-08-30T01:31:37;9.23;;;7.65;;
15012;SDS011;7603;49.432;11.418;2022-08-30T01:34:03;8.50;;;7.65;;
15012;SDS011;7603;49.432;11.418;2022-08-30T01:36:31;15.25;;;8.48;;
15012;SDS011;7603;49.432;11.418;2022-08-30T01:39:01;8.23;;;7.40;;
15012;SDS011;7603;49.432;11.418;2022-08-30T01:41:29;8.85;;;8.23;;
15012;SDS011;7603;49.432;11.418;2022-08-30T01:43:59;8.38;;;7.57;;
15012;SDS011;7603;49.432;11.418;2022-08-30T01:46:28;9.77;;;8.50;;
15012;SDS011;7603;49.432;11.418;2022-08-30T01:48:56;10.10;;;7.80;;
15012;SDS011;7603;49.432;11.418;2022-08-30T01:51:23;9.43;;;8.52;;
15012;SDS011;7603;49.432;11.418;2022-08-30T01:53:51;8.18;;;7.50;;
15012;SDS011;7603;49.432;11.418;2022-08-30T01:56:17;8.80;;;8.00;;
15012;SDS011;7603;49.432;11.418;2022-08-30T01:58:43;9.77;;;8.75;;
15012;SDS011;7603;49.432;11.418;2022-08-30T02:01:10;9.45;;;8.23;;
15012;SDS011;7603;49.432;11.418;2022-08-30T02:03:38;9.82;;;8.73;;
15012;SDS011;7603;49.432;11.418;2022-08-30T02:06:06;9.77;;;8.98;;
15012;SDS011;7603;49.432;11.418;2022-08-30T02:08:34;10.88;;;9.43;;
15012;SDS011;7603;49.432;11.418;2022-08-30T02:11:01;14.65;;;9.77;;
15012;SDS011;7603;49.432;11.418;2022-08-30T02:13:27;8.40;;;7.68;;
15012;SDS011;7603;49.432;11.418;2022-08-30T02:15:54;10.10;;;9.10;;
15012;SDS011;7603;49.432;11.418;2022-08-30T02:18:21;7.68;;;7.07;;
15012;SDS011;7603;49.432;11.418;2022-08-30T02:20:49;8.13;;;7.32;;
15012;SDS011;7603;49.432;11.418;2022-08-30T02:23:14;9.15;;;8.25;;
15012;SDS011;7603;49.432;11.418;2022-08-30T02:25:40;14.13;;;8.55;;
15012;SDS011;7603;49.432;11.418;2022-08-30T02:28:06;8.65;;;7.82;;
15012;SDS011;7603;49.432;11.418;2022-08-30T02:30:33;8.63;;;7.78;;
15012;SDS011;7603;49.432;11.418;2022-08-30T02:32:58;9.32;;;8.40;;
15012;SDS011;7603;49.432;11.418;2022-08-30T02:35:24;8.65;;;7.95;;
15012;SDS011;7603;49.432;11.418;2022-08-30T02:37:50;8.25;;;7.50;;
15012;SDS011;7603;49.432;11.418;2022-08-30T02:40:16;10.77;;;8.73;;
15012;SDS011;7603;49.432;11.418;2022-08-30T02:42:42;12.95;;;11.65;;
15012;SDS011;7603;49.432;11.418;2022-08-30T02:45:08;12.50;;;11.20;;
15012;SDS011;7603;49.432;11.418;2022-08-30T02:47:34;8.68;;;8.07;;
15012;SDS011;7603;49.432;11.418;2022-08-30T02:50:01;12.23;;;9.50;;
15012;SDS011;7603;49.432;11.418;2022-08-30T02:52:28;8.57;;;7.75;;
15012;SDS011;7603;49.432;11.418;2022-08-30T02:54:54;8.05;;;7.35;;
15012;SDS011;7603;49.432;11.418;2022-08-30T02:57:20;7.97;;;7.28;;
15012;SDS011;7603;49.432;11.418;2022-08-30T02:59:46;9.27;;;7.70;;
15012;SDS011;7603;49.432;11.418;2022-08-30T03:02:12;8.93;;;7.30;;
15012;SDS011;7603;49.432;11.418;2022-08-30T03:04:38;9.70;;;7.60;;
15012;SDS011;7603;49.432;11.418;2022-08-30T03:07:07;7.63;;;7.03;;
15012;SDS011;7603;49.432;11.418;2022-08-30T03:09:33;10.27;;;7.32;;
15012;SDS011;7603;49.432;11.418;2022-08-30T03:12:00;8.05;;;7.40;;
15012;SDS011;7603;49.432;11.418;2022-08-30T03:14:26;7.72;;;6.95;;
15012;SDS011;7603;49.432;11.418;2022-08-30T03:16:52;8.93;;;8.15;;
15012;SDS011;7603;49.432;11.418;2022-08-30T03:19:19;7.82;;;7.22;;
15012;SDS011;7603;49.432;11.418;2022-08-30T03:21:45;8.80;;;8.00;;
15012;SDS011;7603;49.432;11.418;2022-08-30T03:24:10;10.27;;;7.90;;
15012;SDS011;7603;49.432;11.418;2022-08-30T03:26:37;9.50;;;8.60;;
15012;SDS011;7603;49.432;11.418;2022-08-30T03:29:03;9.05;;;8.02;;
15012;SDS011;7603;49.432;11.418;2022-08-30T03:31:29;9.80;;;8.57;;
15012;SDS011;7603;49.432;11.418;2022-08-30T03:33:54;9.77;;;8.10;;
15012;SDS011;7603;49.432;11.418;2022-08-30T03:36:20;8.70;;;7.88;;
15012;SDS011;7603;49.432;11.418;2022-08-30T03:38:46;9.25;;;8.07;;
15012;SDS011;7603;49.432;11.418;2022-08-30T03:41:11;10.27;;;8.02;;
15012;SDS011;7603;49.432;11.418;2022-08-30T03:43:37;9.20;;;8.15;;
15012;SDS011;7603;49.432;11.418;2022-08-30T03:46:03;11.68;;;8.40;;
15012;SDS011;7603;49.432;11.418;2022-08-30T03:48:29;9.60;;;8.50;;
15012;SDS011;7603;49.432;11.418;2022-08-30T03:50:55;12.50;;;9.25;;
15012;SDS011;7603;49.432;11.418;2022-08-30T03:53:20;11.38;;;8.50;;
15012;SDS011;7603;49.432;11.418;2022-08-30T03:55:46;9.02;;;8.25;;
15012;SDS011;7603;49.432;11.418;2022-08-30T03:58:12;9.50;;;8.60;;
15012;SDS011;7603;49.432;11.418;2022-08-30T04:00:37;9.27;;;8.13;;
15012;SDS011;7603;49.432;11.418;2022-08-30T04:03:03;9.27;;;8.15;;
15012;SDS011;7603;49.432;11.418;2022-08-30T04:05:29;9.52;;;8.70;;
15012;SDS011;7603;49.432;11.418;2022-08-30T04:07:55;9.88;;;8.45;;
15012;SDS011;7603;49.432;11.418;2022-08-30T04:10:21;11.82;;;9.13;;
15012;SDS011;7603;49.432;11.418;2022-08-30T04:12:47;9.50;;;8.57;;
15012;SDS011;7603;49.432;11.418;2022-08-30T04:15:14;10.00;;;8.48;;
15012;SDS011;7603;49.432;11.418;2022-08-30T04:17:41;10.80;;;8.18;;
15012;SDS011;7603;49.432;11.418;2022-08-30T04:20:07;10.77;;;8.73;;
15012;SDS011;7603;49.432;11.418;2022-08-30T04:22:33;12.25;;;9.20;;
15012;SDS011;7603;49.432;11.418;2022-08-30T04:25:00;9.93;;;8.93;;
15012;SDS011;7603;49.432;11.418;2022-08-30T04:27:26;14.02;;;8.68;;
15012;SDS011;7603;49.432;11.418;2022-08-30T04:29:52;9.98;;;8.85;;
15012;SDS011;7603;49.432;11.418;2022-08-30T04:32:20;9.35;;;8.55;;
15012;SDS011;7603;49.432;11.418;2022-08-30T04:34:45;9.93;;;8.98;;
15012;SDS011;7603;49.432;11.418;2022-08-30T04:37:11;9.70;;;8.95;;
15012;SDS011;7603;49.432;11.418;2022-08-30T04:39:37;12.15;;;9.60;;
15012;SDS011;7603;49.432;11.418;2022-08-30T04:42:03;10.52;;;9.35;;
15012;SDS011;7603;49.432;11.418;2022-08-30T04:44:30;8.95;;;8.25;;
15012;SDS011;7603;49.432;11.418;2022-08-30T04:46:56;9.68;;;8.80;;
15012;SDS011;7603;49.432;11.418;2022-08-30T04:49:21;10.75;;;9.82;;
15012;SDS011;7603;49.432;11.418;2022-08-30T04:51:47;10.18;;;9.27;;
15012;SDS011;7603;49.432;11.418;2022-08-30T04:54:13;9.77;;;8.93;;
15012;SDS011;7603;49.432;11.418;2022-08-30T04:56:39;13.20;;;10.30;;
15012;SDS011;7603;49.432;11.418;2022-08-30T04:59:04;9.07;;;8.23;;
15012;SDS011;7603;49.432;11.418;2022-08-30T05:01:31;10.63;;;9.68;;
15012;SDS011;7603;49.432;11.418;2022-08-30T05:03:57;10.57;;;9.57;;
15012;SDS011;7603;49.432;11.418;2022-08-30T05:06:26;11.02;;;9.90;;
15012;SDS011;7603;49.432;11.418;2022-08-30T05:08:54;9.77;;;8.88;;
15012;SDS011;7603;49.432;11.418;2022-08-30T05:11:21;10.50;;;9.38;;
15012;SDS011;7603;49.432;11.418;2022-08-30T05:13:48;9.50;;;8.65;;
15012;SDS011;7603;49.432;11.418;2022-08-30T05:16:14;10.45;;;9.50;;
15012;SDS011;7603;49.432;11.418;2022-08-30T05:18:42;11.48;;;9.98;;
15012;SDS011;7603;49.432;11.418;2022-08-30T05:21:13;16.80;;;9.32;;
15012;SDS011;7603;49.432;11.418;2022-08-30T05:23:41;10.65;;;9.65;;
15012;SDS011;7603;49.432;11.418;2022-08-30T05:26:29;8.95;;;8.05;;
15012;SDS011;7603;49.432;11.418;2022-08-30T05:28:56;11.68;;;9.57;;
15012;SDS011;7603;49.432;11.418;2022-08-30T05:31:26;11.80;;;9.88;;
15012;SDS011;7603;49.432;11.418;2022-08-30T05:33:55;10.70;;;9.20;;
15012;SDS011;7603;49.432;11.418;2022-08-30T05:36:22;9.43;;;8.57;;
15012;SDS011;7603;49.432;11.418;2022-08-30T05:38:50;9.40;;;8.45;;
15012;SDS011;7603;49.432;11.418;2022-08-30T05:41:18;11.13;;;9.27;;
15012;SDS011;7603;49.432;11.418;2022-08-30T05:43:45;11.80;;;9.60;;
15012;SDS011;7603;49.432;11.418;2022-08-30T05:46:12;9.45;;;8.63;;
15012;SDS011;7603;49.432;11.418;2022-08-30T05:48:39;9.02;;;8.15;;
15012;SDS011;7603;49.432;11.418;2022-08-30T05:53:36;9.80;;;8.90;;
15012;SDS011;7603;49.432;11.418;2022-08-30T05:56:04;9.30;;;8.48;;
15012;SDS011;7603;49.432;11.418;2022-08-30T05:58:31;14.90;;;8.68;;
15012;SDS011;7603;49.432;11.418;2022-08-30T06:00:57;8.80;;;7.97;;
15012;SDS011;7603;49.432;11.418;2022-08-30T06:03:24;8.38;;;7.55;;
15012;SDS011;7603;49.432;11.418;2022-08-30T06:05:50;9.75;;;7.65;;
15012;SDS011;7603;49.432;11.418;2022-08-30T06:08:15;11.65;;;8.50;;
15012;SDS011;7603;49.432;11.418;2022-08-30T06:10:41;7.85;;;7.07;;
15012;SDS011;7603;49.432;11.418;2022-08-30T06:13:07;9.48;;;8.02;;
15012;SDS011;7603;49.432;11.418;2022-08-30T06:15:33;10.95;;;7.30;;
15012;SDS011;7603;49.432;11.418;2022-08-30T06:17:59;10.48;;;8.02;;
15012;SDS011;7603;49.432;11.418;2022-08-30T06:20:25;9.43;;;7.47;;
15012;SDS011;7603;49.432;11.418;2022-08-30T06:22:50;7.90;;;7.10;;
15012;SDS011;7603;49.432;11.418;2022-08-30T06:25:16;7.10;;;6.50;;
15012;SDS011;7603;49.432;11.418;2022-08-30T06:27:42;8.70;;;6.75;;
15012;SDS011;7603;49.432;11.418;2022-08-30T06:30:08;8.98;;;7.35;;
15012;SDS011;7603;49.432;11.418;2022-08-30T06:32:37;8.88;;;6.72;;
15012;SDS011;7603;49.432;11.418;2022-08-30T06:35:03;7.68;;;6.90;;
15012;SDS011;7603;49.432;11.418;2022-08-30T06:37:30;8.20;;;7.13;;
15012;SDS011;7603;49.432;11.418;2022-08-30T06:39:57;7.55;;;6.45;;
15012;SDS011;7603;49.432;11.418;2022-08-30T06:42:23;7.80;;;7.03;;
15012;SDS011;7603;49.432;11.418;2022-08-30T06:44:55;7.35;;;6.50;;
15012;SDS011;7603;49.432;11.418;2022-08-30T06:47:22;6.50;;;6.10;;
15012;SDS011;7603;49.432;11.418;2022-08-30T06:49:47;9.05;;;8.23;;
15012;SDS011;7603;49.432;11.418;2022-08-30T06:52:13;10.15;;;6.13;;
15012;SDS011;7603;49.432;11.418;2022-08-30T06:54:39;7.55;;;6.95;;
15012;SDS011;7603;49.432;11.418;2022-08-30T06:57:04;7.45;;;5.78;;
15012;SDS011;7603;49.432;11.418;2022-08-30T06:59:30;6.32;;;5.65;;
15012;SDS011;7603;49.432;11.418;2022-08-30T07:01:56;6.57;;;5.85;;
15012;SDS011;7603;49.432;11.418;2022-08-30T07:04:22;8.75;;;6.70;;
15012;SDS011;7603;49.432;11.418;2022-08-30T07:06:48;9.60;;;6.85;;
15012;SDS011;7603;49.432;11.418;2022-08-30T07:09:14;6.47;;;5.80;;
15012;SDS011;7603;49.432;11.418;2022-08-30T07:11:40;7.05;;;6.50;;
15012;SDS011;7603;49.432;11.418;2022-08-30T07:14:06;7.43;;;6.68;;
15012;SDS011;7603;49.432;11.418;2022-08-30T07:16:32;8.63;;;6.53;;
15012;SDS011;7603;49.432;11.418;2022-08-30T07:18:58;6.78;;;6.35;;
15012;SDS011;7603;49.432;11.418;2022-08-30T07:21:30;6.70;;;6.10;;
15012;SDS011;7603;49.432;11.418;2022-08-30T07:23:58;7.35;;;6.65;;
15012;SDS011;7603;49.432;11.418;2022-08-30T07:26:27;6.55;;;5.85;;
15012;SDS011;7603;49.432;11.418;2022-08-30T07:28:58;9.10;;;6.18;;
15012;SDS011;7603;49.432;11.418;2022-08-30T07:31:24;6.78;;;5.95;;
15012;SDS011;7603;49.432;11.418;2022-08-30T07:33:50;8.77;;;5.97;;
15012;SDS011;7603;49.432;11.418;2022-08-30T07:36:17;5.90;;;5.25;;
15012;SDS011;7603;49.432;11.418;2022-08-30T07:38:44;6.68;;;6.07;;
15012;SDS011;7603;49.432;11.418;2022-08-30T07:41:14;6.82;;;6.15;;
15012;SDS011;7603;49.432;11.418;2022-08-30T07:44:02;6.68;;;6.03;;
15012;SDS011;7603;49.432;11.418;2022-08-30T07:46:29;6.65;;;6.03;;
15012;SDS011;7603;49.432;11.418;2022-08-30T07:48:55;8.10;;;6.00;;
15012;SDS011;7603;49.432;11.418;2022-08-30T07:51:24;6.93;;;6.35;;
15012;SDS011;7603;49.432;11.418;2022-08-30T07:53:50;7.53;;;6.70;;
15012;SDS011;7603;49.432;11.418;2022-08-30T07:56:17;10.07;;;7.30;;
15012;SDS011;7603;49.432;11.418;2022-08-30T07:58:43;6.15;;;5.65;;
15012;SDS011;7603;49.432;11.418;2022-08-30T08:01:09;8.02;;;7.25;;
15012;SDS011;7603;49.432;11.418;2022-08-30T08:03:36;7.72;;;6.70;;
15012;SDS011;7603;49.432;11.418;2022-08-30T08:06:04;8.35;;;6.85;;
15012;SDS011;7603;49.432;11.418;2022-08-30T08:08:30;7.25;;;6.50;;
15012;SDS011;7603;49.432;11.418;2022-08-30T08:10:57;8.25;;;6.47;;
15012;SDS011;7603;49.432;11.418;2022-08-30T08:13:29;6.60;;;5.78;;
15012;SDS011;7603;49.432;11.418;2022-08-30T08:15:54;11.23;;;6.47;;
15012;SDS011;7603;49.432;11.418;2022-08-30T08:18:20;6.82;;;6.20;;
15012;SDS011;7603;49.432;11.418;2022-08-30T08:20:46;6.93;;;5.95;;
15012;SDS011;7603;49.432;11.418;2022-08-30T08:23:11;6.28;;;5.78;;
15012;SDS011;7603;49.432;11.418;2022-08-30T08:25:38;7.10;;;6.40;;
15012;SDS011;7603;49.432;11.418;2022-08-30T08:28:05;6.85;;;5.70;;
15012;SDS011;7603;49.432;11.418;2022-08-30T08:30:32;6.32;;;5.82;;
15012;SDS011;7603;49.432;11.418;2022-08-30T08:32:59;7.78;;;5.53;;
15012;SDS011;7603;49.432;11.418;2022-08-30T08:35:25;8.57;;;5.40;;
15012;SDS011;7603;49.432;11.418;2022-08-30T08:37:51;8.63;;;6.13;;
15012;SDS011;7603;49.432;11.418;2022-08-30T08:40:17;13.40;;;5.43;;
15012;SDS011;7603;49.432;11.418;2022-08-30T08:45:31;6.88;;;6.05;;
15012;SDS011;7603;49.432;11.418;2022-08-30T08:50:52;8.77;;;4.85;;
15012;SDS011;7603;49.432;11.418;2022-08-30T08:53:36;4.88;;;4.45;;
15012;SDS011;7603;49.432;11.418;2022-08-30T08:56:04;5.38;;;5.07;;
15012;SDS011;7603;49.432;11.418;2022-08-30T08:58:43;6.60;;;5.28;;
15012;SDS011;7603;49.432;11.418;2022-08-30T09:01:11;5.10;;;4.78;;
15012;SDS011;7603;49.432;11.418;2022-08-30T09:03:39;5.20;;;4.80;;
15012;SDS011;7603;49.432;11.418;2022-08-30T09:06:09;5.50;;;5.03;;
15012;SDS011;7603;49.432;11.418;2022-08-30T09:08:49;4.95;;;4.55;;
15012;SDS011;7603;49.432;11.418;2022-08-30T09:11:22;4.78;;;4.38;;
15012;SDS011;7603;49.432;11.418;2022-08-30T09:13:52;4.30;;;3.90;;
15012;SDS011;7603;49.432;11.418;2022-08-30T09:17:05;4.22;;;3.72;;
15012;SDS011;7603;49.432;11.418;2022-08-30T09:19:23;4.13;;;3.83;;
15012;SDS011;7603;49.432;11.418;2022-08-30T09:21:57;3.92;;;3.40;;
15012;SDS011;7603;49.432;11.418;2022-08-30T09:24:24;4.75;;;4.35;;
15012;SDS011;7603;49.432;11.418;2022-08-30T09:26:50;4.30;;;4.00;;
15012;SDS011;7603;49.432;11.418;2022-08-30T09:29:16;4.13;;;3.83;;
15012;SDS011;7603;49.432;11.418;2022-08-30T09:31:49;5.53;;;3.67;;
15012;SDS011;7603;49.432;11.418;2022-08-30T09:34:19;4.00;;;3.70;;
15012;SDS011;7603;49.432;11.418;2022-08-30T09:36:52;4.40;;;3.47;;
15012;SDS011;7603;49.432;11.418;2022-08-30T09:42:13;4.82;;;4.00;;
15012;SDS011;7603;49.432;11.418;2022-08-30T09:44:43;5.60;;;4.03;;
15012;SDS011;7603;49.432;11.418;2022-08-30T09:47:20;4.55;;;3.42;;
15012;SDS011;7603;49.432;11.418;2022-08-30T09:50:03;3.63;;;3.33;;
15012;SDS011;7603;49.432;11.418;2022-08-30T09:52:33;4.07;;;3.55;;
15012;SDS011;7603;49.432;11.418;2022-08-30T09:55:14;3.50;;;3.30;;
15012;SDS011;7603;49.432;11.418;2022-08-30T10:00:57;3.88;;;3.45;;
15012;SDS011;7603;49.432;11.418;2022-08-30T10:06:06;4.00;;;3.35;;
15012;SDS011;7603;49.432;11.418;2022-08-30T10:11:23;2.80;;;2.60;;
15012;SDS011;7603;49.432;11.418;2022-08-30T10:19:23;2.90;;;2.63;;
15012;SDS011;7603;49.432;11.418;2022-08-30T10:22:02;4.72;;;2.75;;
15012;SDS011;7603;49.432;11.418;2022-08-30T10:24:35;4.28;;;2.50;;
15012;SDS011;7603;49.432;11.418;2022-08-30T10:29:54;2.50;;;2.30;;
15012;SDS011;7603;49.432;11.418;2022-08-30T10:32:33;4.13;;;2.40;;
15012;SDS011;7603;49.432;11.418;2022-08-30T10:35:28;3.63;;;2.63;;
15012;SDS011;7603;49.432;11.418;2022-08-30T10:38:09;3.53;;;2.53;;
15012;SDS011;7603;49.432;11.418;2022-08-30T10:40:46;2.60;;;2.40;;
15012;SDS011;7603;49.432;11.418;2022-08-30T10:43:47;3.17;;;2.40;;
15012;SDS011;7603;49.432;11.418;2022-08-30T10:46:25;2.47;;;2.08;;
15012;SDS011;7603;49.432;11.418;2022-08-30T10:48:58;6.15;;;2.30;;
15012;SDS011;7603;49.432;11.418;2022-08-30T10:54:09;2.20;;;2.00;;
15012;SDS011;7603;49.432;11.418;2022-08-30T10:56:46;2.65;;;2.35;;
15012;SDS011;7603;49.432;11.418;2022-08-30T10:59:15;3.95;;;2.17;;
15012;SDS011;7603;49.432;11.418;2022-08-30T11:01:49;2.65;;;2.40;;
15012;SDS011;7603;49.432;11.418;2022-08-30T11:14:56;2.20;;;2.10;;
15012;SDS011;7603;49.432;11.418;2022-08-30T11:19:49;1.95;;;1.85;;
15012;SDS011;7603;49.432;11.418;2022-08-30T11:22:24;2.50;;;2.30;;
15012;SDS011;7603;49.432;11.418;2022-08-30T11:25:02;3.40;;;1.83;;
15012;SDS011;7603;49.432;11.418;2022-08-30T11:35:38;2.30;;;2.10;;
15012;SDS011;7603;49.432;11.418;2022-08-30T11:40:45;2.28;;;2.17;;
15012;SDS011;7603;49.432;11.418;2022-08-30T11:44:17;2.50;;;2.30;;
15012;SDS011;7603;49.432;11.418;2022-08-30T11:48:44;2.17;;;2.00;;
15012;SDS011;7603;49.432;11.418;2022-08-30T11:59:48;1.80;;;1.70;;
15012;SDS011;7603;49.432;11.418;2022-08-30T12:05:06;2.65;;;2.03;;
15012;SDS011;7603;49.432;11.418;2022-08-30T12:13:06;2.90;;;2.00;;
15012;SDS011;7603;49.432;11.418;2022-08-30T12:18:35;3.53;;;2.22;;
15012;SDS011;7603;49.432;11.418;2022-08-30T12:23:57;3.15;;;2.40;;
15012;SDS011;7603;49.432;11.418;2022-08-30T12:26:33;3.30;;;2.22;;
15012;SDS011;7603;49.432;11.418;2022-08-30T12:29:08;2.75;;;2.13;;
15012;SDS011;7603;49.432;11.418;2022-08-30T12:34:19;5.72;;;2.38;;
15012;SDS011;7603;49.432;11.418;2022-08-30T12:37:04;3.00;;;1.88;;
15012;SDS011;7603;49.432;11.418;2022-08-30T12:42:16;2.58;;;2.10;;
15012;SDS011;7603;49.432;11.418;2022-08-30T12:44:44;2.40;;;2.20;;
15012;SDS011;7603;49.432;11.418;2022-08-30T12:47:12;2.70;;;2.40;;
15012;SDS011;7603;49.432;11.418;2022-08-30T12:49:41;2.65;;;2.42;;
15012;SDS011;7603;49.432;11.418;2022-08-30T12:54:53;2.42;;;2.17;;
15012;SDS011;7603;49.432;11.418;2022-08-30T13:00:09;3.42;;;2.50;;
15012;SDS011;7603;49.432;11.418;2022-08-30T13:02:49;2.67;;;2.47;;
15012;SDS011;7603;49.432;11.418;2022-08-30T13:05:34;2.35;;;2.25;;
15012;SDS011;7603;49.432;11.418;2022-08-30T13:08:23;4.35;;;2.22;;
15012;SDS011;7603;49.432;11.418;2022-08-30T13:18:43;3.08;;;2.40;;
15012;SDS011;7603;49.432;11.418;2022-08-30T13:23:58;2.50;;;2.30;;
15012;SDS011;7603;49.432;11.418;2022-08-30T13:26:36;1.98;;;1.88;;
15012;SDS011;7603;49.432;11.418;2022-08-30T13:29:05;2.55;;;2.28;;
15012;SDS011;7603;49.432;11.418;2022-08-30T13:31:31;2.50;;;2.40;;
15012;SDS011;7603;49.432;11.418;2022-08-30T13:33:57;4.60;;;2.40;;
15012;SDS011;7603;49.432;11.418;2022-08-30T13:36:31;3.60;;;2.40;;
15012;SDS011;7603;49.432;11.418;2022-08-30T13:39:02;2.53;;;2.33;;
15012;SDS011;7603;49.432;11.418;2022-08-30T13:41:29;2.30;;;2.20;;
15012;SDS011;7603;49.432;11.418;2022-08-30T13:43:55;2.58;;;2.08;;
15012;SDS011;7603;49.432;11.418;2022-08-30T13:46:21;3.40;;;2.60;;
15012;SDS011;7603;49.432;11.418;2022-08-30T13:48:48;3.97;;;2.58;;
15012;SDS011;7603;49.432;11.418;2022-08-30T13:51:26;2.83;;;2.30;;
15012;SDS011;7603;49.432;11.418;2022-08-30T13:53:52;2.55;;;2.15;;
15012;SDS011;7603;49.432;11.418;2022-08-30T13:56:18;2.90;;;2.20;;
15012;SDS011;7603;49.432;11.418;2022-08-30T13:58:44;2.97;;;2.58;;
15012;SDS011;7603;49.432;11.418;2022-08-30T14:01:10;2.63;;;2.30;;
15012;SDS011;7603;49.432;11.418;2022-08-30T14:03:35;2.35;;;2.25;;
15012;SDS011;7603;49.432;11.418;2022-08-30T14:06:01;2.50;;;2.30;;
15012;SDS011;7603;49.432;11.418;2022-08-30T14:08:28;2.97;;;1.77;;
15012;SDS011;7603;49.432;11.418;2022-08-30T14:10:55;3.42;;;2.33;;
15012;SDS011;7603;49.432;11.418;2022-08-30T14:13:22;2.70;;;1.83;;
15012;SDS011;7603;49.432;11.418;2022-08-30T14:15:49;2.25;;;2.00;;
15012;SDS011;7603;49.432;11.418;2022-08-30T14:18:15;2.58;;;2.38;;
15012;SDS011;7603;49.432;11.418;2022-08-30T14:20:41;3.05;;;2.00;;
15012;SDS011;7603;49.432;11.418;2022-08-30T14:23:07;3.38;;;2.15;;
15012;SDS011;7603;49.432;11.418;2022-08-30T14:25:33;2.50;;;2.10;;
15012;SDS011;7603;49.432;11.418;2022-08-30T14:27:59;2.20;;;1.95;;
15012;SDS011;7603;49.432;11.418;2022-08-30T14:30:25;2.40;;;2.20;;
15012;SDS011;7603;49.432;11.418;2022-08-30T14:32:50;2.05;;;1.95;;
15012;SDS011;7603;49.432;11.418;2022-08-30T14:35:16;2.08;;;1.85;;
15012;SDS011;7603;49.432;11.418;2022-08-30T14:37:46;2.10;;;1.90;;
15012;SDS011;7603;49.432;11.418;2022-08-30T14:40:13;3.05;;;2.33;;
15012;SDS011;7603;49.432;11.418;2022-08-30T14:42:39;2.78;;;2.03;;
15012;SDS011;7603;49.432;11.418;2022-08-30T14:45:05;2.88;;;1.98;;
15012;SDS011;7603;49.432;11.418;2022-08-30T14:47:31;4.05;;;3.83;;
15012;SDS011;7603;49.432;11.418;2022-08-30T14:49:57;2.08;;;1.98;;
15012;SDS011;7603;49.432;11.418;2022-08-30T14:52:25;3.00;;;2.20;;
15012;SDS011;7603;49.432;11.418;2022-08-30T14:54:51;2.15;;;1.90;;
15012;SDS011;7603;49.432;11.418;2022-08-30T14:57:17;2.33;;;2.10;;
15012;SDS011;7603;49.432;11.418;2022-08-30T14:59:42;2.53;;;2.08;;
15012;SDS011;7603;49.432;11.418;2022-08-30T15:02:08;2.85;;;2.20;;
15012;SDS011;7603;49.432;11.418;2022-08-30T15:04:34;2.03;;;1.80;;
15012;SDS011;7603;49.432;11.418;2022-08-30T15:06:59;2.60;;;2.50;;
15012;SDS011;7603;49.432;11.418;2022-08-30T15:09:25;2.35;;;2.17;;
15012;SDS011;7603;49.432;11.418;2022-08-30T15:11:52;2.63;;;2.42;;
15012;SDS011;7603;49.432;11.418;2022-08-30T15:14:20;2.90;;;2.30;;
15012;SDS011;7603;49.432;11.418;2022-08-30T15:16:46;2.63;;;2.45;;
15012;SDS011;7603;49.432;11.418;2022-08-30T15:19:12;2.60;;;2.40;;
15012;SDS011;7603;49.432;11.418;2022-08-30T15:21:42;2.55;;;2.30;;
15012;SDS011;7603;49.432;11.418;2022-08-30T15:24:11;2.60;;;2.50;;
15012;SDS011;7603;49.432;11.418;2022-08-30T15:26:38;2.55;;;2.35;;
15012;SDS011;7603;49.432;11.418;2022-08-30T15:29:06;3.38;;;2.33;;
15012;SDS011;7603;49.432;11.418;2022-08-30T15:31:32;5.18;;;2.70;;
15012;SDS011;7603;49.432;11.418;2022-08-30T15:33:59;2.70;;;2.50;;
15012;SDS011;7603;49.432;11.418;2022-08-30T15:36:26;2.65;;;2.45;;
15012;SDS011;7603;49.432;11.418;2022-08-30T15:38:52;2.83;;;2.72;;
15012;SDS011;7603;49.432;11.418;2022-08-30T15:41:20;2.55;;;2.38;;
15012;SDS011;7603;49.432;11.418;2022-08-30T15:43:46;3.10;;;2.90;;
15012;SDS011;7603;49.432;11.418;2022-08-30T15:46:20;3.05;;;2.75;;
15012;SDS011;7603;49.432;11.418;2022-08-30T15:48:52;3.67;;;2.67;;
15012;SDS011;7603;49.432;11.418;2022-08-30T15:51:19;3.00;;;2.70;;
15012;SDS011;7603;49.432;11.418;2022-08-30T15:53:47;4.00;;;3.00;;
15012;SDS011;7603;49.432;11.418;2022-08-30T15:56:16;5.35;;;2.90;;
15012;SDS011;7603;49.432;11.418;2022-08-30T15:58:42;3.85;;;3.13;;
15012;SDS011;7603;49.432;11.418;2022-08-30T16:01:08;3.00;;;2.50;;
15012;SDS011;7603;49.432;11.418;2022-08-30T16:03:35;3.58;;;3.28;;
15012;SDS011;7603;49.432;11.418;2022-08-30T16:06:04;3.03;;;2.83;;
15012;SDS011;7603;49.432;11.418;2022-08-30T16:08:36;3.03;;;2.83;;
15012;SDS011;7603;49.432;11.418;2022-08-30T16:11:04;2.90;;;2.65;;
15012;SDS011;7603;49.432;11.418;2022-08-30T16:13:33;3.03;;;2.70;;
15012;SDS011;7603;49.432;11.418;2022-08-30T16:16:00;5.32;;;3.00;;
15012;SDS011;7603;49.432;11.418;2022-08-30T16:18:30;6.93;;;6.43;;
15012;SDS011;7603;49.432;11.418;2022-08-30T16:23:35;3.15;;;2.80;;
15012;SDS011;7603;49.432;11.418;2022-08-30T16:26:02;3.30;;;3.10;;
15012;SDS011;7603;49.432;11.418;2022-08-30T16:28:28;3.55;;;3.30;;
15012;SDS011;7603;49.432;11.418;2022-08-30T16:30:54;3.08;;;2.88;;
15012;SDS011;7603;49.432;11.418;2022-08-30T16:33:20;3.85;;;2.97;;
15012;SDS011;7603;49.432;11.418;2022-08-30T16:35:53;3.58;;;3.28;;